createdAt,value
2019-05-06T00:00:51.925Z,3.87
2019-05-06T00:03:10.740Z,3.72
2019-05-06T00:05:40.828Z,3.87
2019-05-06T00:08:10.637Z,3.50
2019-05-06T00:10:40.456Z,3.52
2019-05-06T00:13:10.731Z,3.85
2019-05-06T00:15:40.584Z,4.20
2019-05-06T00:18:10.400Z,3.72
2019-05-06T00:20:40.676Z,3.95
2019-05-06T00:23:30.492Z,3.92
2019-05-06T00:26:18.369Z,3.85
2019-05-06T00:28:55.352Z,4.17
2019-05-06T00:31:25.468Z,3.98
2019-05-06T00:33:55.252Z,4.10
2019-05-06T00:36:25.099Z,4.12
2019-05-06T00:38:57.087Z,3.75
2019-05-06T00:41:31.335Z,4.08
2019-05-06T00:44:01.108Z,4.20
2019-05-06T00:46:31.280Z,3.83
2019-05-06T00:49:01.092Z,4.33
2019-05-06T00:51:31.049Z,4.10
2019-05-06T00:54:03.980Z,3.87
2019-05-06T00:56:34.333Z,3.27
2019-05-06T00:59:05.120Z,3.65
2019-05-06T01:01:34.980Z,3.37
2019-05-06T01:04:05.376Z,4.08
2019-05-06T01:06:35.420Z,3.80
2019-05-06T01:09:10.576Z,3.85
2019-05-06T01:11:41.589Z,3.50
2019-05-06T01:14:14.787Z,4.10
2019-05-06T01:16:44.446Z,3.55
2019-05-06T01:19:14.298Z,3.65
2019-05-06T01:21:45.210Z,3.77
2019-05-06T01:24:16.032Z,3.90
2019-05-06T01:26:45.851Z,3.70
2019-05-06T01:29:15.882Z,3.98
2019-05-06T01:31:46.336Z,4.45
2019-05-06T01:34:16.443Z,3.20
2019-05-06T01:36:47.087Z,4.15
2019-05-06T01:39:37.609Z,4.30
2019-05-06T01:42:09.032Z,3.72
2019-05-06T01:44:38.829Z,3.75
2019-05-06T01:47:08.637Z,4.03
2019-05-06T01:49:38.417Z,3.98
2019-05-06T01:52:08.198Z,4.10
2019-05-06T01:54:38.011Z,4.35
2019-05-06T01:57:07.794Z,4.08
2019-05-06T01:59:37.860Z,3.90
2019-05-06T02:02:08.414Z,4.62
2019-05-06T02:04:38.192Z,3.90
2019-05-06T02:07:07.971Z,4.15
2019-05-06T02:09:37.972Z,4.45
2019-05-06T02:12:07.764Z,4.55
2019-05-06T02:14:37.963Z,4.72
2019-05-06T02:17:07.771Z,4.47
2019-05-06T02:19:38.407Z,4.12
2019-05-06T02:22:10.681Z,4.40
2019-05-06T02:24:45.119Z,4.37
2019-05-06T02:27:15.682Z,4.80
2019-05-06T02:29:54.333Z,4.67
2019-05-06T02:32:32.941Z,4.30
2019-05-06T02:35:20.236Z,4.50
2019-05-06T02:37:50.256Z,4.22
2019-05-06T02:40:26.971Z,4.95
2019-05-06T02:42:56.757Z,3.92
2019-05-06T02:45:27.601Z,4.05
2019-05-06T02:48:05.164Z,4.58
2019-05-06T02:50:46.164Z,4.65
2019-05-06T02:53:17.689Z,4.22
2019-05-06T02:55:47.466Z,4.08
2019-05-06T02:58:17.910Z,4.37
2019-05-06T03:00:47.840Z,4.35
2019-05-06T03:03:17.622Z,4.10
2019-05-06T03:05:47.418Z,4.65
2019-05-06T03:08:17.240Z,4.17
2019-05-06T03:10:47.375Z,4.05
2019-05-06T03:13:17.167Z,3.67
2019-05-06T03:15:46.990Z,3.10
2019-05-06T03:18:17.004Z,2.90
2019-05-06T03:20:54.868Z,3.42
2019-05-06T03:23:26.309Z,3.55
2019-05-06T03:25:56.078Z,3.45
2019-05-06T03:28:26.809Z,3.37
2019-05-06T03:30:57.865Z,3.10
2019-05-06T03:33:46.813Z,3.15
2019-05-06T03:36:09.497Z,3.22
2019-05-06T03:38:33.535Z,3.42
2019-05-06T03:41:03.362Z,3.15
2019-05-06T03:43:33.996Z,3.15
2019-05-06T03:46:14.324Z,3.20
2019-05-06T03:48:55.517Z,3.35
2019-05-06T03:51:25.296Z,3.00
2019-05-06T03:53:56.806Z,3.10
2019-05-06T03:56:28.022Z,3.67
2019-05-06T03:58:59.463Z,3.52
2019-05-06T04:01:29.531Z,3.40
2019-05-06T04:03:59.461Z,2.95
2019-05-06T04:06:29.988Z,3.47
2019-05-06T04:08:59.831Z,3.70
2019-05-06T04:11:29.958Z,3.30
2019-05-06T04:14:02.711Z,3.67
2019-05-06T04:16:46.204Z,3.80
2019-05-06T04:19:18.598Z,3.77
2019-05-06T04:21:56.705Z,4.30
2019-05-06T04:24:28.241Z,3.83
2019-05-06T04:27:19.131Z,4.03
2019-05-06T04:29:49.172Z,4.22
2019-05-06T04:32:19.010Z,4.30
2019-05-06T04:34:49.096Z,4.30
2019-05-06T04:37:19.248Z,4.12
2019-05-06T04:39:52.986Z,4.12
2019-05-06T04:42:23.294Z,4.53
2019-05-06T04:44:54.110Z,4.22
2019-05-06T04:47:24.394Z,4.42
2019-05-06T04:49:55.630Z,4.33
2019-05-06T04:52:26.413Z,4.58
2019-05-06T04:54:56.191Z,3.72
2019-05-06T04:57:45.293Z,4.20
2019-05-06T05:00:15.087Z,3.67
2019-05-06T05:02:46.478Z,4.50
2019-05-06T05:05:16.659Z,3.80
2019-05-06T05:07:47.392Z,3.52
2019-05-06T05:10:24.806Z,3.83
2019-05-06T05:12:59.243Z,3.58
2019-05-06T05:15:49.072Z,3.85
2019-05-06T05:18:32.093Z,3.37
2019-05-06T05:21:02.504Z,4.00
2019-05-06T05:23:32.596Z,4.00
2019-05-06T05:26:03.046Z,3.22
2019-05-06T05:28:33.289Z,3.92
2019-05-06T05:31:03.197Z,3.62
2019-05-06T05:33:33.998Z,3.70
2019-05-06T05:36:03.820Z,3.30
2019-05-06T05:38:33.747Z,3.50
2019-05-06T05:41:03.776Z,3.50
2019-05-06T05:43:50.234Z,3.20
2019-05-06T05:46:21.771Z,3.55
2019-05-06T05:48:56.495Z,3.55
2019-05-06T05:51:27.313Z,2.87
2019-05-06T05:53:57.104Z,3.47
2019-05-06T05:56:26.994Z,3.00
2019-05-06T05:58:56.967Z,3.20
2019-05-06T06:01:27.135Z,2.85
2019-05-06T06:03:57.044Z,3.17
2019-05-06T06:06:26.974Z,3.30
2019-05-06T06:08:56.802Z,3.02
2019-05-06T06:11:28.278Z,3.25
2019-05-06T06:13:59.714Z,3.25
2019-05-06T06:16:49.150Z,3.10
2019-05-06T06:19:24.951Z,2.55
2019-05-06T06:21:59.161Z,3.08
2019-05-06T06:24:32.189Z,2.75
2019-05-06T06:27:03.356Z,2.33
2019-05-06T06:29:34.137Z,2.40
2019-05-06T06:32:17.879Z,2.72
2019-05-06T06:35:10.856Z,2.20
2019-05-06T06:37:44.460Z,2.30
2019-05-06T06:40:16.634Z,2.33
2019-05-06T06:42:48.116Z,2.72
2019-05-06T06:45:18.817Z,2.55
2019-05-06T06:47:48.681Z,2.12
2019-05-06T06:50:18.904Z,2.40
2019-05-06T06:52:48.655Z,2.45
2019-05-06T06:55:18.694Z,2.60
2019-05-06T06:57:52.801Z,2.52
2019-05-06T07:00:42.516Z,2.40
2019-05-06T07:03:15.181Z,2.45
2019-05-06T07:05:52.658Z,2.70
2019-05-06T07:08:33.958Z,2.52
2019-05-06T07:10:53.772Z,2.27
2019-05-06T07:13:23.660Z,2.25
2019-05-06T07:15:53.450Z,2.30
2019-05-06T07:18:23.450Z,2.05
2019-05-06T07:20:55.168Z,1.87
2019-05-06T07:23:27.487Z,1.70
2019-05-06T07:25:58.373Z,2.62
2019-05-06T07:28:28.202Z,1.80
2019-05-06T07:31:13.125Z,1.92
2019-05-06T07:33:29.670Z,2.10
2019-05-06T07:36:02.088Z,2.05
2019-05-06T07:38:32.577Z,2.08
2019-05-06T07:41:10.123Z,2.05
2019-05-06T07:43:42.386Z,2.25
2019-05-06T07:46:17.364Z,1.92
2019-05-06T07:48:47.924Z,1.82
2019-05-06T07:51:17.759Z,1.85
2019-05-06T07:53:47.720Z,1.67
2019-05-06T07:56:17.732Z,1.80
2019-05-06T07:58:47.655Z,1.90
2019-05-06T08:01:23.609Z,1.65
2019-05-06T08:03:53.242Z,1.92
2019-05-06T08:06:23.436Z,1.85
2019-05-06T08:08:53.874Z,1.85
2019-05-06T08:11:26.083Z,2.02
2019-05-06T08:13:55.490Z,2.10
2019-05-06T08:16:26.972Z,2.00
2019-05-06T08:18:56.882Z,2.02
2019-05-06T08:21:28.896Z,1.95
2019-05-06T08:23:58.715Z,1.55
2019-05-06T08:26:28.496Z,2.20
2019-05-06T08:28:58.275Z,1.85
2019-05-06T08:31:28.164Z,1.98
2019-05-06T08:33:58.020Z,2.00
2019-05-06T08:36:42.632Z,2.47
2019-05-06T08:39:13.959Z,1.85
2019-05-06T08:41:43.738Z,2.10
2019-05-06T08:44:14.843Z,2.37
2019-05-06T08:46:45.358Z,1.90
2019-05-06T08:49:15.379Z,1.92
2019-05-06T08:51:49.634Z,1.80
2019-05-06T08:54:27.731Z,2.00
2019-05-06T08:56:57.666Z,2.02
2019-05-06T08:59:27.465Z,2.40
2019-05-06T09:01:58.913Z,1.95
2019-05-06T09:04:29.236Z,1.82
2019-05-06T09:07:00.214Z,1.92
2019-05-06T09:09:32.397Z,1.80
2019-05-06T09:12:02.806Z,1.85
2019-05-06T09:14:32.929Z,2.08
2019-05-06T09:17:04.131Z,1.87
2019-05-06T09:19:34.284Z,2.00
2019-05-06T09:22:05.053Z,1.60
2019-05-06T09:24:34.860Z,1.70
2019-05-06T09:27:06.280Z,1.62
2019-05-06T09:29:42.737Z,1.75
2019-05-06T09:32:16.727Z,1.92
2019-05-06T09:34:49.061Z,1.90
2019-05-06T09:37:23.505Z,1.80
2019-05-06T09:39:53.495Z,1.80
2019-05-06T09:42:23.649Z,2.10
2019-05-06T09:44:54.324Z,2.08
2019-05-06T09:47:43.899Z,2.25
2019-05-06T09:50:17.291Z,1.75
2019-05-06T09:52:47.091Z,2.20
2019-05-06T09:55:32.528Z,1.85
2019-05-06T09:58:05.046Z,1.92
2019-05-06T10:00:36.720Z,2.10
2019-05-06T10:03:07.552Z,2.20
2019-05-06T10:05:38.366Z,2.00
2019-05-06T10:08:08.281Z,2.12
2019-05-06T10:10:46.646Z,1.52
2019-05-06T10:13:12.669Z,2.12
2019-05-06T10:15:43.018Z,2.08
2019-05-06T10:18:13.912Z,2.00
2019-05-06T10:20:45.945Z,2.00
2019-05-06T10:23:15.846Z,1.85
2019-05-06T10:25:46.607Z,1.85
2019-05-06T10:28:18.764Z,2.10
2019-05-06T10:30:49.977Z,1.80
2019-05-06T10:33:21.454Z,1.82
2019-05-06T10:35:53.018Z,1.50
2019-05-06T10:38:42.395Z,1.77
2019-05-06T10:41:18.324Z,1.80
2019-05-06T10:44:02.978Z,1.67
2019-05-06T10:46:32.977Z,1.90
2019-05-06T10:49:02.896Z,1.50
2019-05-06T10:51:53.013Z,1.92
2019-05-06T10:54:24.439Z,1.82
2019-05-06T10:56:57.541Z,1.87
2019-05-06T10:59:27.428Z,2.00
2019-05-06T11:01:58.879Z,1.87
2019-05-06T11:04:28.648Z,2.10
2019-05-06T11:06:58.511Z,2.50
2019-05-06T11:09:29.614Z,2.20
2019-05-06T11:12:00.100Z,2.05
2019-05-06T11:14:32.081Z,2.62
2019-05-06T11:17:04.906Z,1.90
2019-05-06T11:19:33.207Z,1.90
2019-05-06T11:22:03.805Z,2.00
2019-05-06T11:24:34.804Z,1.95
2019-05-06T11:27:04.620Z,1.95
2019-05-06T11:29:43.573Z,2.05
2019-05-06T11:32:21.334Z,1.70
2019-05-06T11:34:53.795Z,2.20
2019-05-06T11:37:26.666Z,2.22
2019-05-06T11:39:57.483Z,2.00
2019-05-06T11:42:32.255Z,2.45
2019-05-06T11:44:59.583Z,2.05
2019-05-06T11:47:29.369Z,1.82
2019-05-06T11:50:02.497Z,1.87
2019-05-06T11:52:34.649Z,2.45
2019-05-06T11:55:06.959Z,1.85
2019-05-06T11:57:38.402Z,2.00
2019-05-06T12:00:12.577Z,2.30
2019-05-06T12:02:45.116Z,2.10
2019-05-06T12:05:13.725Z,1.77
2019-05-06T12:08:00.445Z,2.30
2019-05-06T12:10:16.614Z,2.00
2019-05-06T12:12:46.412Z,1.90
2019-05-06T12:15:17.123Z,2.17
2019-05-06T12:17:46.953Z,1.90
2019-05-06T12:20:16.983Z,2.17
2019-05-06T12:22:46.769Z,1.90
2019-05-06T12:25:16.788Z,2.00
2019-05-06T12:27:47.207Z,2.35
2019-05-06T12:30:23.083Z,2.10
2019-05-06T12:33:03.192Z,1.98
2019-05-06T12:35:34.254Z,2.52
2019-05-06T12:38:23.819Z,2.30
2019-05-06T12:40:37.406Z,2.40
2019-05-06T12:43:15.945Z,2.05
2019-05-06T12:45:48.327Z,2.30
2019-05-06T12:48:20.801Z,2.05
2019-05-06T12:50:52.552Z,2.20
2019-05-06T12:53:23.298Z,2.15
2019-05-06T12:55:53.916Z,2.08
2019-05-06T12:58:23.695Z,1.95
2019-05-06T13:00:54.355Z,1.92
2019-05-06T13:03:25.469Z,1.80
2019-05-06T13:05:56.258Z,2.02
2019-05-06T13:08:32.503Z,2.00
2019-05-06T13:10:57.927Z,2.17
2019-05-06T13:13:28.693Z,2.05
2019-05-06T13:15:58.577Z,2.37
2019-05-06T13:18:28.563Z,2.30
2019-05-06T13:20:58.611Z,2.80
2019-05-06T13:23:35.026Z,2.50
2019-05-06T13:26:04.070Z,2.62
2019-05-06T13:28:35.507Z,2.20
2019-05-06T13:31:19.369Z,2.60
2019-05-06T13:33:38.749Z,2.33
2019-05-06T13:36:08.651Z,2.17
2019-05-06T13:38:38.596Z,1.90
2019-05-06T13:41:08.422Z,2.10
2019-05-06T13:43:43.329Z,1.92
2019-05-06T13:46:17.773Z,1.95
2019-05-06T13:49:02.768Z,1.85
2019-05-06T13:51:37.864Z,1.92
2019-05-06T13:54:08.659Z,2.10
2019-05-06T13:56:38.694Z,2.00
2019-05-06T13:59:08.698Z,1.70
2019-05-06T14:01:44.082Z,1.50
2019-05-06T14:04:16.022Z,2.02
2019-05-06T14:06:46.152Z,1.95
2019-05-06T14:09:28.408Z,2.30
2019-05-06T14:11:48.396Z,2.47
2019-05-06T14:14:18.397Z,2.50
2019-05-06T14:16:48.342Z,2.55
2019-05-06T14:19:18.391Z,2.83
2019-05-06T14:21:48.445Z,2.50
2019-05-06T14:24:18.324Z,2.20
2019-05-06T14:26:57.329Z,2.00
2019-05-06T14:29:44.437Z,2.20
2019-05-06T14:32:15.203Z,2.20
2019-05-06T14:34:45.880Z,2.20
2019-05-06T14:37:15.680Z,2.12
2019-05-06T14:39:54.031Z,2.27
2019-05-06T14:42:18.569Z,2.20
2019-05-06T14:44:48.358Z,2.20
2019-05-06T14:47:25.832Z,2.10
2019-05-06T14:49:55.605Z,2.17
2019-05-06T14:52:25.469Z,1.98
2019-05-06T14:54:56.933Z,2.67
2019-05-06T14:57:26.713Z,2.15
2019-05-06T14:59:57.015Z,2.02
2019-05-06T15:02:28.510Z,2.50
2019-05-06T15:04:58.379Z,2.35
2019-05-06T15:07:28.166Z,2.25
2019-05-06T15:10:15.693Z,2.08
2019-05-06T15:12:30.338Z,1.90
2019-05-06T15:15:00.156Z,2.20
2019-05-06T15:17:32.863Z,2.10
2019-05-06T15:20:02.911Z,2.52
2019-05-06T15:22:33.001Z,1.50
2019-05-06T15:25:04.107Z,1.32
2019-05-06T15:27:35.046Z,1.82
2019-05-06T15:30:16.870Z,1.80
2019-05-06T15:32:47.422Z,2.25
2019-05-06T15:35:18.962Z,2.00
2019-05-06T15:37:59.252Z,1.80
2019-05-06T15:40:32.665Z,2.20
2019-05-06T15:43:02.223Z,1.80
2019-05-06T15:45:32.538Z,2.02
2019-05-06T15:48:02.751Z,2.05
2019-05-06T15:50:32.980Z,1.80
2019-05-06T15:53:02.959Z,1.77
2019-05-06T15:55:32.839Z,1.40
2019-05-06T15:58:03.467Z,1.60
2019-05-06T16:00:53.274Z,1.30
2019-05-06T16:03:23.437Z,1.72
2019-05-06T16:05:55.202Z,1.95
2019-05-06T16:08:24.738Z,1.65
2019-05-06T16:10:58.431Z,1.60
2019-05-06T16:13:26.015Z,1.75
2019-05-06T16:15:55.896Z,1.80
2019-05-06T16:18:26.418Z,2.00
2019-05-06T16:20:57.887Z,1.80
2019-05-06T16:23:29.362Z,1.70
2019-05-06T16:25:59.149Z,3.83
2019-05-06T16:28:30.217Z,4.28
2019-05-06T16:31:02.307Z,3.72
2019-05-06T16:33:33.006Z,4.00
2019-05-06T16:36:02.870Z,4.03
2019-05-06T16:38:32.815Z,3.75
2019-05-06T16:41:12.852Z,4.35
2019-05-06T16:43:34.987Z,4.90
2019-05-06T16:46:04.883Z,4.95
2019-05-06T16:48:34.663Z,5.12
2019-05-06T16:51:05.005Z,5.53
2019-05-06T16:53:35.213Z,5.10
2019-05-06T16:56:13.165Z,5.58
2019-05-06T16:58:47.157Z,6.10
2019-05-06T17:01:16.290Z,6.22
2019-05-06T17:03:47.731Z,6.37
2019-05-06T17:06:23.082Z,6.50
2019-05-06T17:08:53.441Z,7.28
2019-05-06T17:11:30.431Z,7.45
2019-05-06T17:13:54.664Z,7.90
2019-05-06T17:16:24.520Z,7.10
2019-05-06T17:18:56.802Z,5.42
2019-05-06T17:21:29.190Z,4.85
2019-05-06T17:24:02.158Z,3.98
2019-05-06T17:26:33.850Z,3.90
2019-05-06T17:29:11.318Z,4.40
2019-05-06T17:31:45.716Z,5.47
2019-05-06T17:34:17.203Z,6.12
2019-05-06T17:36:48.668Z,7.42
2019-05-06T17:39:18.451Z,9.73
2019-05-06T17:41:49.244Z,10.55
2019-05-06T17:44:22.858Z,10.32
2019-05-06T17:47:13.111Z,10.18
2019-05-06T17:49:43.499Z,11.50
2019-05-06T17:52:15.153Z,13.18
2019-05-06T17:54:45.314Z,12.05
2019-05-06T17:57:15.769Z,11.05
2019-05-06T17:59:45.618Z,9.18
2019-05-06T18:02:19.174Z,8.18
2019-05-06T18:04:48.495Z,8.13
2019-05-06T18:07:18.601Z,6.90
2019-05-06T18:09:48.469Z,6.80
2019-05-06T18:12:18.263Z,8.60
2019-05-06T18:14:48.361Z,9.03
2019-05-06T18:17:18.408Z,8.75
2019-05-06T18:19:48.208Z,8.85
2019-05-06T18:22:22.606Z,8.60
2019-05-06T18:24:52.554Z,7.15
2019-05-06T18:27:23.072Z,8.10
2019-05-06T18:29:53.384Z,9.40
2019-05-06T18:32:23.486Z,7.22
2019-05-06T18:34:53.519Z,7.87
2019-05-06T18:37:23.473Z,8.10
2019-05-06T18:39:54.731Z,8.83
2019-05-06T18:42:25.411Z,8.43
2019-05-06T18:44:55.263Z,7.70
2019-05-06T18:47:25.071Z,7.97
2019-05-06T18:49:55.279Z,7.05
2019-05-06T18:52:25.084Z,7.85
2019-05-06T18:54:54.903Z,8.10
2019-05-06T18:57:25.401Z,8.03
2019-05-06T18:59:55.185Z,8.00
2019-05-06T19:02:26.785Z,7.22
2019-05-06T19:04:58.042Z,7.15
2019-05-06T19:07:28.008Z,7.30
2019-05-06T19:09:59.575Z,8.70
2019-05-06T19:12:39.208Z,8.53
2019-05-06T19:15:03.280Z,7.92
2019-05-06T19:17:34.224Z,7.85
2019-05-06T19:20:06.362Z,8.38
2019-05-06T19:22:36.380Z,8.25
2019-05-06T19:25:06.267Z,12.45
2019-05-06T19:27:36.067Z,17.15
2019-05-06T19:30:07.291Z,21.17
2019-05-06T19:32:37.217Z,23.70
2019-05-06T19:35:07.263Z,27.05
2019-05-06T19:37:37.112Z,27.93
2019-05-06T19:40:07.198Z,22.05
2019-05-06T19:42:48.886Z,14.55
2019-05-06T19:45:08.856Z,14.23
2019-05-06T19:47:38.941Z,14.10
2019-05-06T19:50:09.712Z,13.98
2019-05-06T19:52:39.511Z,13.70
2019-05-06T19:55:09.354Z,13.15
2019-05-06T19:57:39.362Z,14.65
2019-05-06T20:00:09.717Z,15.63
2019-05-06T20:02:39.553Z,15.13
2019-05-06T20:05:28.459Z,15.40
2019-05-06T20:07:59.932Z,16.85
2019-05-06T20:10:32.789Z,16.50
2019-05-06T20:13:05.602Z,15.25
2019-05-06T20:15:39.806Z,11.22
2019-05-06T20:18:10.712Z,9.40
2019-05-06T20:20:42.408Z,8.75
2019-05-06T20:23:12.693Z,8.80
2019-05-06T20:25:44.872Z,9.35
2019-05-06T20:28:14.299Z,9.30
2019-05-06T20:30:44.767Z,9.18
2019-05-06T20:33:15.645Z,9.48
2019-05-06T20:35:45.445Z,8.80
2019-05-06T20:38:15.244Z,8.73
2019-05-06T20:40:45.494Z,8.85
2019-05-06T20:43:20.376Z,8.83
2019-05-06T20:45:47.644Z,9.30
2019-05-06T20:48:17.822Z,9.85
2019-05-06T20:50:47.957Z,9.58
2019-05-06T20:53:17.788Z,9.25
2019-05-06T20:55:47.588Z,10.18
2019-05-06T20:58:17.610Z,10.30
2019-05-06T21:00:47.716Z,10.25
2019-05-06T21:03:17.497Z,10.70
2019-05-06T21:05:47.640Z,10.38
2019-05-06T21:08:17.470Z,10.43
2019-05-06T21:10:49.725Z,10.78
2019-05-06T21:13:29.607Z,11.55
2019-05-06T21:15:50.152Z,12.00
2019-05-06T21:18:19.941Z,14.05
2019-05-06T21:20:49.777Z,14.38
2019-05-06T21:23:25.917Z,13.70
2019-05-06T21:25:55.705Z,13.95
2019-05-06T21:28:26.152Z,13.40
2019-05-06T21:30:56.196Z,13.80
2019-05-06T21:33:25.990Z,13.70
2019-05-06T21:35:56.169Z,14.18
2019-05-06T21:38:27.143Z,14.07
2019-05-06T21:40:57.488Z,12.47
2019-05-06T21:43:27.432Z,12.55
2019-05-06T21:45:57.546Z,12.73
2019-05-06T21:48:27.410Z,13.13
2019-05-06T21:50:57.310Z,12.95
2019-05-06T21:53:27.430Z,12.47
2019-05-06T21:55:57.238Z,12.58
2019-05-06T21:58:27.418Z,12.18
2019-05-06T22:01:02.453Z,12.75
2019-05-06T22:03:32.807Z,13.22
2019-05-06T22:06:03.049Z,12.98
2019-05-06T22:08:34.018Z,13.25
2019-05-06T22:11:04.649Z,13.03
2019-05-06T22:13:34.509Z,14.40
2019-05-06T22:16:04.757Z,13.93
2019-05-06T22:18:34.952Z,14.05
2019-05-06T22:21:12.323Z,14.43
2019-05-06T22:23:58.162Z,14.15
2019-05-06T22:26:32.495Z,14.50
2019-05-06T22:29:02.450Z,14.53
2019-05-06T22:31:33.080Z,14.30
2019-05-06T22:34:03.588Z,14.75
2019-05-06T22:36:33.379Z,14.13
2019-05-06T22:39:05.525Z,13.80
2019-05-06T22:41:35.348Z,14.85
2019-05-06T22:44:13.764Z,14.93
2019-05-06T22:46:37.262Z,13.88
2019-05-06T22:49:07.092Z,14.10
2019-05-06T22:51:37.677Z,14.03
2019-05-06T22:54:07.471Z,14.05
2019-05-06T22:56:37.306Z,14.45
2019-05-06T22:59:07.087Z,14.63
2019-05-06T23:01:54.186Z,15.20
2019-05-06T23:04:24.168Z,15.18
2019-05-06T23:06:54.289Z,15.25
2019-05-06T23:09:24.999Z,16.48
2019-05-06T23:11:55.528Z,16.23
2019-05-06T23:14:31.106Z,16.10
2019-05-06T23:16:57.955Z,16.85
2019-05-06T23:19:27.938Z,16.57
2019-05-06T23:21:57.716Z,16.65
2019-05-06T23:24:33.022Z,17.17
2019-05-06T23:27:03.844Z,17.98
2019-05-06T23:29:33.641Z,17.98
2019-05-06T23:32:03.733Z,18.52
2019-05-06T23:34:33.566Z,18.07
2019-05-06T23:37:08.929Z,18.15
2019-05-06T23:40:16.792Z,18.45
2019-05-06T23:43:22.951Z,18.40
2019-05-06T23:46:29.010Z,18.50
2019-05-06T23:49:34.914Z,19.10
2019-05-06T23:52:41.033Z,17.67
2019-05-06T23:55:47.482Z,18.30
2019-05-06T23:58:16.086Z,18.48
